createdAt,value
2017-12-30T00:00:55.801Z,0
2017-12-30T00:01:56.368Z,0
2017-12-30T00:02:56.937Z,0
2017-12-30T00:03:57.504Z,0
2017-12-30T00:04:58.072Z,0
2017-12-30T00:05:58.639Z,0
2017-12-30T00:06:59.209Z,0
2017-12-30T00:07:59.787Z,0
2017-12-30T00:09:00.347Z,0
2017-12-30T00:10:00.916Z,0
2017-12-30T00:11:01.483Z,0
2017-12-30T00:12:02.051Z,0
2017-12-30T00:13:02.617Z,0
2017-12-30T00:14:03.187Z,0
2017-12-30T00:15:03.757Z,0
2017-12-30T00:16:04.325Z,0
2017-12-30T00:17:04.894Z,0
2017-12-30T00:18:05.462Z,0
2017-12-30T00:19:06.030Z,0
2017-12-30T00:20:06.602Z,0
2017-12-30T00:21:07.168Z,0
2017-12-30T00:22:07.757Z,0
2017-12-30T00:23:08.303Z,0
2017-12-30T00:24:08.873Z,0
2017-12-30T00:25:09.442Z,0
2017-12-30T00:26:10.013Z,0
2017-12-30T00:27:10.579Z,0
2017-12-30T00:28:11.149Z,0
2017-12-30T00:29:11.718Z,0
2017-12-30T00:30:12.285Z,0
2017-12-30T00:31:12.851Z,0
2017-12-30T00:32:13.420Z,0
2017-12-30T00:33:14.001Z,0
2017-12-30T00:34:14.569Z,0
2017-12-30T00:35:15.154Z,0
2017-12-30T00:36:15.719Z,0
2017-12-30T00:37:16.288Z,0
2017-12-30T00:38:16.870Z,0
2017-12-30T00:39:17.453Z,0
2017-12-30T00:40:18.020Z,0
2017-12-30T00:41:18.588Z,0
2017-12-30T00:42:19.155Z,0
2017-12-30T00:43:19.736Z,0
2017-12-30T00:44:20.306Z,0
2017-12-30T00:45:20.874Z,0
2017-12-30T00:46:21.442Z,0
2017-12-30T00:47:22.012Z,0
2017-12-30T00:48:22.582Z,0
2017-12-30T00:49:23.150Z,0
2017-12-30T00:50:23.717Z,0
2017-12-30T00:51:24.285Z,0
2017-12-30T00:52:24.854Z,0
2017-12-30T00:53:25.423Z,0
2017-12-30T00:54:25.994Z,0
2017-12-30T00:55:26.562Z,0
2017-12-30T00:56:27.130Z,0
2017-12-30T00:57:27.698Z,0
2017-12-30T00:58:28.266Z,0
2017-12-30T00:59:28.834Z,0
2017-12-30T01:00:29.404Z,0
2017-12-30T01:01:29.974Z,0
2017-12-30T01:02:30.542Z,0
2017-12-30T01:03:31.110Z,0
2017-12-30T01:04:31.679Z,0
2017-12-30T01:05:32.247Z,0
2017-12-30T01:06:32.817Z,0
2017-12-30T01:07:33.386Z,0
2017-12-30T01:08:33.956Z,0
2017-12-30T01:09:34.525Z,0
2017-12-30T01:10:35.094Z,0
2017-12-30T01:11:35.662Z,0
2017-12-30T01:12:36.232Z,0
2017-12-30T01:13:36.803Z,0
2017-12-30T01:14:37.370Z,0
2017-12-30T01:15:37.938Z,0
2017-12-30T01:16:38.505Z,0
2017-12-30T01:17:39.073Z,0
2017-12-30T01:18:39.686Z,0
2017-12-30T01:19:40.209Z,0
2017-12-30T01:20:40.780Z,0
2017-12-30T01:21:41.361Z,0
2017-12-30T01:22:41.930Z,0
2017-12-30T01:23:42.501Z,0
2017-12-30T01:24:43.084Z,0
2017-12-30T01:25:43.667Z,0
2017-12-30T01:26:44.236Z,0
2017-12-30T01:27:44.808Z,0
2017-12-30T01:28:45.373Z,0
2017-12-30T01:29:45.941Z,0
2017-12-30T01:30:46.508Z,0
2017-12-30T01:31:47.076Z,0
2017-12-30T01:32:47.657Z,0
2017-12-30T01:33:48.225Z,0
2017-12-30T01:34:48.793Z,0
2017-12-30T01:35:49.363Z,0
2017-12-30T01:36:49.933Z,0
2017-12-30T01:37:50.504Z,0
2017-12-30T01:38:51.072Z,0
2017-12-30T01:39:51.641Z,0
2017-12-30T01:40:52.220Z,0
2017-12-30T01:41:52.787Z,0
2017-12-30T01:42:53.357Z,0
2017-12-30T01:43:53.925Z,0
2017-12-30T01:44:54.494Z,0
2017-12-30T01:45:55.064Z,0
2017-12-30T01:46:55.632Z,0
2017-12-30T01:47:56.201Z,0
2017-12-30T01:48:56.769Z,0
2017-12-30T01:49:57.337Z,0
2017-12-30T01:50:57.904Z,0
2017-12-30T01:51:58.473Z,0
2017-12-30T01:52:59.043Z,0
2017-12-30T01:53:59.611Z,0
2017-12-30T01:55:00.180Z,0
2017-12-30T01:56:00.747Z,0
2017-12-30T01:57:01.315Z,0
2017-12-30T01:58:01.883Z,0
2017-12-30T01:59:02.451Z,0
2017-12-30T02:00:03.020Z,0
2017-12-30T02:01:03.589Z,0
2017-12-30T02:02:04.158Z,0
2017-12-30T02:03:04.727Z,0
2017-12-30T02:04:05.296Z,0
2017-12-30T02:05:05.865Z,0
2017-12-30T02:06:06.432Z,0
2017-12-30T02:07:07.004Z,0
2017-12-30T02:08:07.570Z,0
2017-12-30T02:09:08.138Z,0
2017-12-30T02:10:08.706Z,0
2017-12-30T02:11:09.275Z,0
2017-12-30T02:12:09.846Z,0
2017-12-30T02:13:10.414Z,0
2017-12-30T02:14:10.984Z,0
2017-12-30T02:15:11.551Z,0
2017-12-30T02:16:12.117Z,0
2017-12-30T02:17:12.686Z,0
2017-12-30T02:18:13.254Z,0
2017-12-30T02:19:13.824Z,0
2017-12-30T02:20:14.406Z,0
2017-12-30T02:21:14.974Z,0
2017-12-30T02:22:15.544Z,0
2017-12-30T02:23:16.113Z,0
2017-12-30T02:24:16.681Z,0
2017-12-30T02:25:17.249Z,0
2017-12-30T02:26:17.818Z,0
2017-12-30T02:27:18.386Z,0
2017-12-30T02:28:18.957Z,0
2017-12-30T02:29:19.524Z,0
2017-12-30T02:30:20.091Z,0
2017-12-30T02:31:20.660Z,0
2017-12-30T02:32:21.242Z,0
2017-12-30T02:33:21.809Z,0
2017-12-30T02:34:22.377Z,0
2017-12-30T02:35:22.946Z,0
2017-12-30T02:36:23.520Z,0
2017-12-30T02:37:24.079Z,0
2017-12-30T02:38:24.663Z,0
2017-12-30T02:39:25.230Z,0
2017-12-30T02:40:25.799Z,0
2017-12-30T02:41:26.365Z,0
2017-12-30T02:42:26.936Z,0
2017-12-30T02:43:27.503Z,0
2017-12-30T02:44:28.071Z,0
2017-12-30T02:45:28.638Z,0
2017-12-30T02:46:29.207Z,0
2017-12-30T02:47:29.775Z,0
2017-12-30T02:48:30.346Z,0
2017-12-30T02:49:30.924Z,0
2017-12-30T02:50:31.490Z,0
2017-12-30T02:51:32.058Z,0
2017-12-30T02:52:32.626Z,0
2017-12-30T02:53:33.210Z,0
2017-12-30T02:54:33.776Z,0
2017-12-30T02:55:34.345Z,0
2017-12-30T02:56:34.914Z,0
2017-12-30T02:57:35.482Z,0
2017-12-30T02:58:36.065Z,0
2017-12-30T02:59:36.646Z,0
2017-12-30T03:00:37.214Z,0
2017-12-30T03:01:37.786Z,0
2017-12-30T03:02:38.368Z,0
2017-12-30T03:03:38.938Z,0
2017-12-30T03:04:39.508Z,0
2017-12-30T03:05:40.075Z,0
2017-12-30T03:06:40.658Z,0
2017-12-30T03:07:41.229Z,0
2017-12-30T03:08:41.797Z,0
2017-12-30T03:09:42.364Z,0
2017-12-30T03:10:42.932Z,0
2017-12-30T03:11:43.502Z,0
2017-12-30T03:12:44.074Z,0
2017-12-30T03:13:44.638Z,0
2017-12-30T03:14:45.208Z,0
2017-12-30T03:15:45.774Z,0
2017-12-30T03:16:46.358Z,0
2017-12-30T03:17:46.926Z,0
2017-12-30T03:18:47.493Z,0
2017-12-30T03:19:48.075Z,0
2017-12-30T03:20:48.642Z,0
2017-12-30T03:21:49.211Z,0
2017-12-30T03:22:49.779Z,0
2017-12-30T03:23:50.350Z,0
2017-12-30T03:24:50.917Z,0
2017-12-30T03:25:51.498Z,0
2017-12-30T03:26:52.069Z,0
2017-12-30T03:27:52.637Z,0
2017-12-30T03:28:53.209Z,0
2017-12-30T03:29:53.775Z,0
2017-12-30T03:30:54.342Z,0
2017-12-30T03:31:54.912Z,0
2017-12-30T03:32:55.495Z,0
2017-12-30T03:33:56.066Z,0
2017-12-30T03:34:56.634Z,0
2017-12-30T03:35:57.201Z,0
2017-12-30T03:36:57.769Z,0
2017-12-30T03:37:58.351Z,0
2017-12-30T03:38:58.919Z,0
2017-12-30T03:39:59.491Z,0
2017-12-30T03:41:00.056Z,0
2017-12-30T03:42:00.624Z,0
2017-12-30T03:43:01.193Z,0
2017-12-30T03:44:01.761Z,0
2017-12-30T03:45:02.330Z,0
2017-12-30T03:46:02.898Z,0
2017-12-30T03:47:03.466Z,0
2017-12-30T03:48:04.034Z,0
2017-12-30T03:49:04.609Z,0
2017-12-30T03:50:05.174Z,0
2017-12-30T03:51:05.740Z,0
2017-12-30T03:52:06.309Z,0
2017-12-30T03:53:06.876Z,0
2017-12-30T03:54:07.443Z,0
2017-12-30T03:55:08.012Z,0
2017-12-30T03:56:08.579Z,0
2017-12-30T03:57:09.148Z,0
2017-12-30T03:58:09.716Z,0
2017-12-30T03:59:10.287Z,0
2017-12-30T04:00:10.855Z,0
2017-12-30T04:01:11.422Z,0
2017-12-30T04:02:11.990Z,0
2017-12-30T04:03:12.571Z,0
2017-12-30T04:04:13.137Z,0
2017-12-30T04:05:13.706Z,0
2017-12-30T04:06:14.274Z,0
2017-12-30T04:07:14.903Z,0
2017-12-30T04:08:15.426Z,0
2017-12-30T04:09:15.995Z,0
2017-12-30T04:10:16.566Z,0
2017-12-30T04:11:17.132Z,0
2017-12-30T04:12:17.701Z,0
2017-12-30T04:13:18.284Z,0
2017-12-30T04:14:18.853Z,0
2017-12-30T04:15:19.419Z,0
2017-12-30T04:16:19.988Z,0
2017-12-30T04:17:20.557Z,0
2017-12-30T04:18:21.128Z,0
2017-12-30T04:19:21.696Z,0
2017-12-30T04:20:22.277Z,0
2017-12-30T04:21:22.845Z,0
2017-12-30T04:22:23.467Z,0
2017-12-30T04:23:23.981Z,0
2017-12-30T04:24:24.550Z,0
2017-12-30T04:25:25.118Z,0
2017-12-30T04:26:25.691Z,0
2017-12-30T04:27:26.269Z,0
2017-12-30T04:28:26.838Z,0
2017-12-30T04:29:27.413Z,0
2017-12-30T04:30:27.989Z,0
2017-12-30T04:31:28.559Z,0
2017-12-30T04:32:29.127Z,0
2017-12-30T04:33:29.695Z,0
2017-12-30T04:34:30.261Z,0
2017-12-30T04:35:30.829Z,0
2017-12-30T04:36:31.395Z,0
2017-12-30T04:37:31.961Z,0
2017-12-30T04:38:32.529Z,0
2017-12-30T04:39:33.108Z,0
2017-12-30T04:40:33.675Z,0
2017-12-30T04:41:34.247Z,0
2017-12-30T04:42:34.809Z,0
2017-12-30T04:43:35.376Z,0
2017-12-30T04:44:35.945Z,0
2017-12-30T04:45:36.513Z,0
2017-12-30T04:46:37.085Z,0
2017-12-30T04:47:37.653Z,0
2017-12-30T04:48:38.236Z,0
2017-12-30T04:49:38.804Z,0
2017-12-30T04:50:39.372Z,0
2017-12-30T04:51:39.941Z,0
2017-12-30T04:52:40.511Z,0
2017-12-30T04:53:41.080Z,0
2017-12-30T04:54:41.648Z,0
2017-12-30T04:55:42.231Z,0
2017-12-30T04:56:42.799Z,0
2017-12-30T04:57:43.369Z,0
2017-12-30T04:58:43.936Z,0
2017-12-30T04:59:44.504Z,0
2017-12-30T05:00:45.075Z,0
2017-12-30T05:01:45.642Z,0
2017-12-30T05:02:46.210Z,0
2017-12-30T05:03:46.778Z,0
2017-12-30T05:04:47.345Z,0
2017-12-30T05:05:47.912Z,0
2017-12-30T05:06:48.494Z,0
2017-12-30T05:07:49.063Z,0
2017-12-30T05:08:49.644Z,0
2017-12-30T05:09:50.211Z,0
2017-12-30T05:10:50.778Z,0
2017-12-30T05:11:51.345Z,0
2017-12-30T05:12:51.913Z,0
2017-12-30T05:13:52.482Z,0
2017-12-30T05:14:53.051Z,0
2017-12-30T05:15:53.634Z,0
2017-12-30T05:16:54.204Z,0
2017-12-30T05:17:54.772Z,0
2017-12-30T05:18:55.342Z,0
2017-12-30T05:19:55.922Z,0
2017-12-30T05:20:56.490Z,0
2017-12-30T05:21:57.058Z,0
2017-12-30T05:22:57.626Z,0
2017-12-30T05:23:58.193Z,0
2017-12-30T05:24:58.763Z,0
2017-12-30T05:25:59.332Z,0
2017-12-30T05:26:59.901Z,0
2017-12-30T05:28:00.473Z,0
2017-12-30T05:29:01.035Z,0
2017-12-30T05:30:01.602Z,0
2017-12-30T05:31:02.170Z,0
2017-12-30T05:32:02.740Z,0
2017-12-30T05:33:03.320Z,0
2017-12-30T05:34:03.901Z,0
2017-12-30T05:35:04.469Z,0
2017-12-30T05:36:05.037Z,0
2017-12-30T05:37:05.620Z,0
2017-12-30T05:38:06.187Z,0
2017-12-30T05:39:06.755Z,0
2017-12-30T05:40:07.324Z,0
2017-12-30T05:41:07.904Z,0
2017-12-30T05:42:08.472Z,0
2017-12-30T05:43:09.041Z,0
2017-12-30T05:44:09.615Z,0
2017-12-30T05:45:10.194Z,0
2017-12-30T05:46:10.765Z,0
2017-12-30T05:47:11.347Z,0
2017-12-30T05:48:11.917Z,0
2017-12-30T05:49:12.485Z,0
2017-12-30T05:50:13.072Z,0
2017-12-30T05:51:13.621Z,0
2017-12-30T05:52:14.191Z,0
2017-12-30T05:53:14.772Z,0
2017-12-30T05:54:15.344Z,0
2017-12-30T05:55:15.907Z,0
2017-12-30T05:56:16.477Z,0
2017-12-30T05:57:17.045Z,0
2017-12-30T05:58:17.614Z,0
2017-12-30T05:59:18.183Z,0
2017-12-30T06:00:18.763Z,0
2017-12-30T06:01:19.317Z,0
2017-12-30T06:02:19.885Z,0
2017-12-30T06:03:20.455Z,0
2017-12-30T06:04:21.038Z,0
2017-12-30T06:05:21.606Z,0
2017-12-30T06:06:22.188Z,0
2017-12-30T06:07:22.759Z,0
2017-12-30T06:08:23.330Z,0
2017-12-30T06:09:23.896Z,0
2017-12-30T06:10:24.466Z,0
2017-12-30T06:11:25.032Z,0
2017-12-30T06:12:25.603Z,0
2017-12-30T06:13:26.173Z,0
2017-12-30T06:14:26.742Z,0
2017-12-30T06:15:27.312Z,0
2017-12-30T06:16:27.877Z,0
2017-12-30T06:17:28.448Z,0
2017-12-30T06:18:29.014Z,0
2017-12-30T06:19:29.594Z,0
2017-12-30T06:20:30.175Z,0
2017-12-30T06:21:30.757Z,0
2017-12-30T06:22:31.324Z,0
2017-12-30T06:23:31.893Z,0
2017-12-30T06:24:32.460Z,0
2017-12-30T06:25:33.027Z,0
2017-12-30T06:26:33.596Z,0
2017-12-30T06:27:34.164Z,0
2017-12-30T06:28:34.734Z,0
2017-12-30T06:29:35.301Z,0
2017-12-30T06:30:35.871Z,0
2017-12-30T06:31:36.439Z,0
2017-12-30T06:32:37.022Z,0
2017-12-30T06:33:37.591Z,0
2017-12-30T06:34:38.173Z,0
2017-12-30T06:35:38.741Z,0
2017-12-30T06:36:39.309Z,0
2017-12-30T06:37:39.878Z,0
2017-12-30T06:38:40.446Z,0
2017-12-30T06:39:41.027Z,0
2017-12-30T06:40:41.608Z,0
2017-12-30T06:41:42.190Z,0
2017-12-30T06:42:42.757Z,0
2017-12-30T06:43:43.326Z,0
2017-12-30T06:44:43.894Z,0
2017-12-30T06:45:44.476Z,0
2017-12-30T06:46:45.061Z,0
2017-12-30T06:47:45.628Z,0
2017-12-30T06:48:46.196Z,0
2017-12-30T06:49:46.764Z,0
2017-12-30T06:50:47.331Z,0
2017-12-30T06:51:47.901Z,0
2017-12-30T06:52:48.471Z,0
2017-12-30T06:53:49.039Z,0
2017-12-30T06:54:49.607Z,0
2017-12-30T06:55:50.174Z,0
2017-12-30T06:56:50.743Z,0
2017-12-30T06:57:51.325Z,0
2017-12-30T06:58:51.894Z,0
2017-12-30T06:59:52.476Z,0
2017-12-30T07:00:53.043Z,0
2017-12-30T07:01:53.611Z,0
2017-12-30T07:02:54.178Z,0
2017-12-30T07:03:54.747Z,0
2017-12-30T07:04:55.317Z,0
2017-12-30T07:05:55.890Z,0
2017-12-30T07:06:56.459Z,0
2017-12-30T07:07:57.040Z,0
2017-12-30T07:08:57.607Z,0
2017-12-30T07:09:58.222Z,0
2017-12-30T07:10:58.742Z,0
2017-12-30T07:11:59.311Z,0
2017-12-30T07:12:59.921Z,0
2017-12-30T07:14:00.449Z,0
2017-12-30T07:15:01.016Z,0
2017-12-30T07:16:01.584Z,0
2017-12-30T07:17:02.154Z,0
2017-12-30T07:18:02.721Z,0
2017-12-30T07:19:03.303Z,0
2017-12-30T07:20:03.872Z,0
2017-12-30T07:21:04.454Z,0
2017-12-30T07:22:05.023Z,0
2017-12-30T07:23:05.592Z,0
2017-12-30T07:24:06.160Z,0
2017-12-30T07:25:06.729Z,0
2017-12-30T07:26:07.296Z,0
2017-12-30T07:27:07.866Z,0
2017-12-30T07:28:08.433Z,0
2017-12-30T07:29:09.004Z,0
2017-12-30T07:30:09.584Z,0
2017-12-30T07:31:10.166Z,0
2017-12-30T07:32:10.734Z,0
2017-12-30T07:33:11.302Z,0
2017-12-30T07:34:11.870Z,0
2017-12-30T07:35:12.439Z,0
2017-12-30T07:36:13.008Z,0
2017-12-30T07:37:13.578Z,4
2017-12-30T07:38:14.148Z,4
2017-12-30T07:39:14.716Z,0
2017-12-30T07:40:15.284Z,0
2017-12-30T07:41:15.852Z,4
2017-12-30T07:42:16.435Z,4
2017-12-30T07:43:17.017Z,4
2017-12-30T07:44:17.585Z,4
2017-12-30T07:45:18.153Z,0
2017-12-30T07:46:18.722Z,4
2017-12-30T07:47:19.293Z,4
2017-12-30T07:48:19.863Z,8
2017-12-30T07:49:20.429Z,4
2017-12-30T07:50:20.995Z,8
2017-12-30T07:51:21.564Z,8
2017-12-30T07:52:22.130Z,8
2017-12-30T07:53:22.700Z,4
2017-12-30T07:54:23.269Z,8
2017-12-30T07:55:23.838Z,8
2017-12-30T07:56:24.406Z,4
2017-12-30T07:57:24.975Z,12
2017-12-30T07:58:25.543Z,8
2017-12-30T07:59:26.123Z,8
2017-12-30T08:00:26.693Z,12
2017-12-30T08:01:27.260Z,8
2017-12-30T08:02:27.830Z,12
2017-12-30T08:03:28.399Z,16
2017-12-30T08:04:28.968Z,12
2017-12-30T08:05:29.538Z,16
2017-12-30T08:06:30.107Z,20
2017-12-30T08:07:30.675Z,24
2017-12-30T08:08:31.259Z,28
2017-12-30T08:09:31.828Z,28
2017-12-30T08:10:32.405Z,28
2017-12-30T08:11:33.003Z,28
2017-12-30T08:12:33.537Z,32
2017-12-30T08:13:34.112Z,28
2017-12-30T08:14:34.688Z,28
2017-12-30T08:15:35.257Z,36
2017-12-30T08:16:35.826Z,36
2017-12-30T08:17:36.396Z,44
2017-12-30T08:18:36.978Z,40
2017-12-30T08:19:37.548Z,36
2017-12-30T08:20:38.119Z,32
2017-12-30T08:21:38.702Z,28
2017-12-30T08:22:39.272Z,32
2017-12-30T08:23:39.842Z,32
2017-12-30T08:24:40.434Z,28
2017-12-30T08:25:40.981Z,28
2017-12-30T08:26:41.551Z,24
2017-12-30T08:27:42.121Z,32
2017-12-30T08:28:42.692Z,40
2017-12-30T08:29:43.266Z,32
2017-12-30T08:30:43.833Z,24
2017-12-30T08:31:44.398Z,20
2017-12-30T08:32:44.967Z,20
2017-12-30T08:33:45.536Z,20
2017-12-30T08:34:46.105Z,20
2017-12-30T08:35:46.676Z,20
2017-12-30T08:36:47.244Z,20
2017-12-30T08:37:47.814Z,28
2017-12-30T08:38:48.384Z,32
2017-12-30T08:39:48.953Z,32
2017-12-30T08:40:49.524Z,28
2017-12-30T08:41:50.092Z,32
2017-12-30T08:42:50.680Z,36
2017-12-30T08:43:51.246Z,36
2017-12-30T08:44:51.815Z,36
2017-12-30T08:45:52.400Z,44
2017-12-30T08:46:52.969Z,44
2017-12-30T08:47:53.538Z,44
2017-12-30T08:48:54.108Z,44
2017-12-30T08:49:54.678Z,52
2017-12-30T08:50:55.260Z,52
2017-12-30T08:51:55.830Z,48
2017-12-30T08:52:56.401Z,48
2017-12-30T08:53:56.966Z,48
2017-12-30T08:54:57.536Z,52
2017-12-30T08:55:58.104Z,60
2017-12-30T08:56:58.674Z,68
2017-12-30T08:57:59.245Z,72
2017-12-30T08:58:59.814Z,64
2017-12-30T09:00:00.382Z,64
2017-12-30T09:01:00.952Z,60
2017-12-30T09:02:01.521Z,52
2017-12-30T09:03:02.093Z,48
2017-12-30T09:04:02.663Z,48
2017-12-30T09:05:03.236Z,56
2017-12-30T09:06:03.814Z,68
2017-12-30T09:07:04.382Z,76
2017-12-30T09:08:04.952Z,76
2017-12-30T09:09:05.525Z,76
2017-12-30T09:10:06.093Z,76
2017-12-30T09:11:06.663Z,76
2017-12-30T09:12:07.231Z,72
2017-12-30T09:13:07.800Z,72
2017-12-30T09:14:08.372Z,76
2017-12-30T09:15:08.939Z,72
2017-12-30T09:16:09.522Z,72
2017-12-30T09:17:10.092Z,80
2017-12-30T09:18:10.662Z,84
2017-12-30T09:19:11.232Z,80
2017-12-30T09:20:11.803Z,80
2017-12-30T09:21:12.372Z,72
2017-12-30T09:22:12.948Z,76
2017-12-30T09:23:13.512Z,72
2017-12-30T09:24:14.083Z,80
2017-12-30T09:25:14.655Z,80
2017-12-30T09:26:15.224Z,76
2017-12-30T09:27:15.791Z,76
2017-12-30T09:28:16.360Z,72
2017-12-30T09:29:16.930Z,68
2017-12-30T09:30:17.503Z,68
2017-12-30T09:31:18.071Z,72
2017-12-30T09:32:18.641Z,80
2017-12-30T09:33:19.210Z,80
2017-12-30T09:34:19.781Z,72
2017-12-30T09:35:20.351Z,68
2017-12-30T09:36:20.921Z,64
2017-12-30T09:37:21.490Z,68
2017-12-30T09:38:22.058Z,64
2017-12-30T09:39:22.629Z,64
2017-12-30T09:40:23.201Z,68
2017-12-30T09:41:23.786Z,76
2017-12-30T09:42:24.355Z,76
2017-12-30T09:43:24.924Z,68
2017-12-30T09:44:25.494Z,76
2017-12-30T09:45:26.077Z,72
2017-12-30T09:46:26.647Z,80
2017-12-30T09:47:27.216Z,84
2017-12-30T09:48:27.797Z,96
2017-12-30T09:49:28.369Z,100
2017-12-30T09:50:28.941Z,96
2017-12-30T09:51:29.510Z,100
2017-12-30T09:52:30.080Z,92
2017-12-30T09:53:30.651Z,88
2017-12-30T09:54:31.219Z,84
2017-12-30T09:55:31.790Z,72
2017-12-30T09:56:32.359Z,72
2017-12-30T09:57:32.930Z,76
2017-12-30T09:58:33.502Z,92
2017-12-30T09:59:34.070Z,92
2017-12-30T10:00:34.640Z,92
2017-12-30T10:01:35.208Z,92
2017-12-30T10:02:35.778Z,88
2017-12-30T10:03:36.349Z,96
2017-12-30T10:04:36.919Z,100
2017-12-30T10:05:37.488Z,96
2017-12-30T10:06:38.059Z,104
2017-12-30T10:07:38.628Z,96
2017-12-30T10:08:39.200Z,92
2017-12-30T10:09:39.769Z,92
2017-12-30T10:10:40.354Z,100
2017-12-30T10:11:40.925Z,100
2017-12-30T10:12:41.493Z,104
2017-12-30T10:13:42.063Z,112
2017-12-30T10:14:42.636Z,104
2017-12-30T10:15:43.207Z,112
2017-12-30T10:16:43.776Z,112
2017-12-30T10:17:44.360Z,104
2017-12-30T10:18:44.928Z,112
2017-12-30T10:19:45.499Z,124
2017-12-30T10:20:46.074Z,120
2017-12-30T10:21:46.644Z,108
2017-12-30T10:22:47.214Z,104
2017-12-30T10:23:47.784Z,104
2017-12-30T10:24:48.381Z,108
2017-12-30T10:25:48.951Z,104
2017-12-30T10:26:49.521Z,100
2017-12-30T10:27:50.093Z,108
2017-12-30T10:28:50.661Z,116
2017-12-30T10:29:51.231Z,128
2017-12-30T10:30:51.800Z,120
2017-12-30T10:31:52.371Z,116
2017-12-30T10:32:52.941Z,104
2017-12-30T10:33:53.510Z,100
2017-12-30T10:34:54.080Z,84
2017-12-30T10:35:54.647Z,88
2017-12-30T10:36:55.214Z,88
2017-12-30T10:37:55.785Z,92
2017-12-30T10:38:56.354Z,88
2017-12-30T10:39:56.925Z,84
2017-12-30T10:40:57.494Z,96
2017-12-30T10:41:58.061Z,92
2017-12-30T10:42:58.629Z,72
2017-12-30T10:43:59.202Z,68
2017-12-30T10:44:59.771Z,64
2017-12-30T10:46:00.339Z,64
2017-12-30T10:47:00.909Z,68
2017-12-30T10:48:01.477Z,76
2017-12-30T10:49:02.050Z,68
2017-12-30T10:50:02.616Z,68
2017-12-30T10:51:03.198Z,76
2017-12-30T10:52:03.785Z,80
2017-12-30T10:53:04.338Z,84
2017-12-30T10:54:04.910Z,84
2017-12-30T10:55:05.494Z,84
2017-12-30T10:56:06.070Z,92
2017-12-30T10:57:06.633Z,96
2017-12-30T10:58:07.201Z,100
2017-12-30T10:59:07.772Z,92
2017-12-30T11:00:08.342Z,72
2017-12-30T11:01:08.913Z,60
2017-12-30T11:02:09.480Z,64
2017-12-30T11:03:10.048Z,80
2017-12-30T11:04:10.618Z,84
2017-12-30T11:05:11.186Z,84
2017-12-30T11:06:11.756Z,68
2017-12-30T11:07:12.325Z,64
2017-12-30T11:08:12.897Z,52
2017-12-30T11:09:13.463Z,52
2017-12-30T11:10:14.046Z,48
2017-12-30T11:11:14.615Z,60
2017-12-30T11:12:15.184Z,60
2017-12-30T11:13:15.754Z,60
2017-12-30T11:14:16.322Z,56
2017-12-30T11:15:16.894Z,64
2017-12-30T11:16:17.474Z,68
2017-12-30T11:17:18.043Z,56
2017-12-30T11:18:18.612Z,48
2017-12-30T11:19:19.183Z,48
2017-12-30T11:20:19.751Z,52
2017-12-30T11:21:20.320Z,56
2017-12-30T11:22:20.890Z,64
2017-12-30T11:23:21.457Z,52
2017-12-30T11:24:22.025Z,52
2017-12-30T11:25:22.595Z,60
2017-12-30T11:26:23.165Z,76
2017-12-30T11:27:23.737Z,72
2017-12-30T11:28:24.306Z,72
2017-12-30T11:29:24.875Z,68
2017-12-30T11:30:25.443Z,60
2017-12-30T11:31:26.012Z,68
2017-12-30T11:32:26.580Z,64
2017-12-30T11:33:27.152Z,60
2017-12-30T11:34:27.722Z,72
2017-12-30T11:35:28.299Z,96
2017-12-30T11:36:28.912Z,112
2017-12-30T11:37:29.448Z,128
2017-12-30T11:38:30.019Z,96
2017-12-30T11:39:30.588Z,100
2017-12-30T11:40:31.160Z,104
2017-12-30T11:41:31.731Z,88
2017-12-30T11:42:32.299Z,72
2017-12-30T11:43:32.871Z,88
2017-12-30T11:44:33.438Z,72
2017-12-30T11:45:34.007Z,72
2017-12-30T11:46:34.578Z,84
2017-12-30T11:47:35.146Z,80
2017-12-30T11:48:35.729Z,76
2017-12-30T11:49:36.311Z,88
2017-12-30T11:50:36.881Z,104
2017-12-30T11:51:37.449Z,100
2017-12-30T11:52:38.074Z,116
2017-12-30T11:53:38.594Z,104
2017-12-30T11:54:39.165Z,104
2017-12-30T11:55:39.736Z,100
2017-12-30T11:56:40.305Z,80
2017-12-30T11:57:40.878Z,80
2017-12-30T11:58:41.478Z,76
2017-12-30T11:59:42.032Z,84
2017-12-30T12:00:42.605Z,120
2017-12-30T12:01:43.176Z,120
2017-12-30T12:02:43.747Z,112
2017-12-30T12:03:44.322Z,88
2017-12-30T12:04:44.897Z,92
2017-12-30T12:05:45.469Z,88
2017-12-30T12:06:46.038Z,100
2017-12-30T12:07:46.606Z,104
2017-12-30T12:08:47.182Z,100
2017-12-30T12:09:47.762Z,76
2017-12-30T12:10:48.334Z,88
2017-12-30T12:11:48.906Z,100
2017-12-30T12:12:49.477Z,108
2017-12-30T12:13:50.049Z,112
2017-12-30T12:14:50.619Z,124
2017-12-30T12:15:51.191Z,128
2017-12-30T12:16:51.764Z,124
2017-12-30T12:17:52.333Z,120
2017-12-30T12:18:52.904Z,128
2017-12-30T12:19:53.475Z,132
2017-12-30T12:20:54.047Z,120
2017-12-30T12:21:54.621Z,100
2017-12-30T12:22:55.206Z,84
2017-12-30T12:23:55.777Z,92
2017-12-30T12:24:56.347Z,76
2017-12-30T12:25:56.917Z,80
2017-12-30T12:26:57.486Z,68
2017-12-30T12:27:58.261Z,80
2017-12-30T12:28:58.832Z,88
2017-12-30T12:29:59.400Z,84
2017-12-30T12:30:59.970Z,92
2017-12-30T12:32:00.540Z,92
2017-12-30T12:33:01.113Z,108
2017-12-30T12:34:01.685Z,100
2017-12-30T12:35:02.257Z,108
2017-12-30T12:36:02.830Z,100
2017-12-30T12:37:03.402Z,112
2017-12-30T12:38:03.977Z,124
2017-12-30T12:39:04.552Z,116
2017-12-30T12:40:05.124Z,112
2017-12-30T12:41:05.699Z,116
2017-12-30T12:42:06.275Z,124
2017-12-30T12:43:06.848Z,116
2017-12-30T12:44:07.426Z,96
2017-12-30T12:45:07.995Z,120
2017-12-30T12:46:08.572Z,132
2017-12-30T12:47:09.159Z,120
2017-12-30T12:48:09.732Z,112
2017-12-30T12:49:10.307Z,112
2017-12-30T12:50:10.880Z,120
2017-12-30T12:51:11.459Z,116
2017-12-30T12:52:12.035Z,132
2017-12-30T12:53:12.608Z,132
2017-12-30T12:54:13.182Z,120
2017-12-30T12:55:13.756Z,120
2017-12-30T12:56:14.332Z,104
2017-12-30T12:57:14.906Z,96
2017-12-30T12:58:15.479Z,88
2017-12-30T12:59:16.053Z,88
2017-12-30T13:00:16.640Z,72
2017-12-30T13:01:17.215Z,60
2017-12-30T13:02:17.788Z,56
2017-12-30T13:03:18.375Z,68
2017-12-30T13:04:18.947Z,76
2017-12-30T13:05:19.519Z,92
2017-12-30T13:06:20.090Z,92
2017-12-30T13:07:20.665Z,84
2017-12-30T13:08:21.238Z,80
2017-12-30T13:09:21.812Z,76
2017-12-30T13:10:22.398Z,96
2017-12-30T13:11:22.972Z,96
2017-12-30T13:12:23.547Z,120
2017-12-30T13:13:24.125Z,116
2017-12-30T13:14:24.705Z,92
2017-12-30T13:15:25.274Z,72
2017-12-30T13:16:25.861Z,76
2017-12-30T13:17:26.437Z,84
2017-12-30T13:18:27.011Z,76
2017-12-30T13:19:27.635Z,80
2017-12-30T13:20:28.160Z,80
2017-12-30T13:21:28.736Z,100
2017-12-30T13:22:29.312Z,104
2017-12-30T13:23:29.888Z,116
2017-12-30T13:24:30.463Z,108
2017-12-30T13:25:31.039Z,128
2017-12-30T13:26:33.311Z,132
2017-12-30T13:27:32.187Z,136
2017-12-30T13:28:32.776Z,136
2017-12-30T13:29:33.353Z,132
2017-12-30T13:30:33.927Z,116
2017-12-30T13:31:34.502Z,108
2017-12-30T13:32:35.077Z,92
2017-12-30T13:33:35.653Z,104
2017-12-30T13:34:36.227Z,124
2017-12-30T13:35:36.804Z,128
2017-12-30T13:36:37.382Z,112
2017-12-30T13:37:37.952Z,112
2017-12-30T13:38:38.549Z,108
2017-12-30T13:39:39.118Z,108
2017-12-30T13:40:39.693Z,104
2017-12-30T13:41:40.267Z,100
2017-12-30T13:42:40.842Z,100
2017-12-30T13:43:41.417Z,100
2017-12-30T13:44:41.994Z,104
2017-12-30T13:45:42.569Z,112
2017-12-30T13:46:43.145Z,104
2017-12-30T13:47:43.736Z,100
2017-12-30T13:48:44.313Z,100
2017-12-30T13:49:44.886Z,84
2017-12-30T13:50:45.461Z,80
2017-12-30T13:51:46.038Z,76
2017-12-30T13:52:46.611Z,76
2017-12-30T13:53:47.187Z,80
2017-12-30T13:54:47.773Z,96
2017-12-30T13:55:48.347Z,96
2017-12-30T13:56:48.921Z,96
2017-12-30T13:57:49.529Z,92
2017-12-30T13:58:50.071Z,80
2017-12-30T13:59:50.645Z,80
2017-12-30T14:00:51.220Z,80
2017-12-30T14:01:51.798Z,80
2017-12-30T14:02:52.370Z,72
2017-12-30T14:03:52.958Z,68
2017-12-30T14:04:53.533Z,60
2017-12-30T14:05:54.109Z,64
2017-12-30T14:06:54.685Z,64
2017-12-30T14:07:55.307Z,72
2017-12-30T14:08:55.835Z,76
2017-12-30T14:09:56.409Z,80
2017-12-30T14:10:56.998Z,76
2017-12-30T14:11:57.573Z,76
2017-12-30T14:12:58.148Z,76
2017-12-30T14:13:58.721Z,76
2017-12-30T14:14:59.309Z,84
2017-12-30T14:15:59.883Z,92
2017-12-30T14:17:00.459Z,92
2017-12-30T14:18:01.033Z,72
2017-12-30T14:19:01.610Z,60
2017-12-30T14:20:02.203Z,52
2017-12-30T14:21:02.770Z,56
2017-12-30T14:22:03.348Z,56
2017-12-30T14:23:03.920Z,56
2017-12-30T14:24:04.510Z,44
2017-12-30T14:25:05.083Z,44
2017-12-30T14:26:05.657Z,44
2017-12-30T14:27:06.232Z,48
2017-12-30T14:28:06.807Z,48
2017-12-30T14:29:07.385Z,36
2017-12-30T14:30:07.955Z,44
2017-12-30T14:31:08.530Z,48
2017-12-30T14:32:09.105Z,36
2017-12-30T14:33:09.678Z,44
2017-12-30T14:34:10.253Z,44
2017-12-30T14:35:10.826Z,52
2017-12-30T14:36:11.402Z,56
2017-12-30T14:37:11.978Z,64